Time;durP1;ratioP1;P1;durP2;ratioP2;P2;SDS_P1;SDS_P2;PMS_P1;PMS_P2;Temp;Humidity;BMP_temperature;BMP_pressure;BME280_temperature;BME280_humidity;BME280_pressure;Samples;Min_cycle;Max_cycle;Signal;HPM_P1;HPM_P2
2022/03/11 00:00:25;;;;;;;6.80;2.77;;;;;;;8.51;35.60;100551.38;5056477;28;20032;-78
2022/03/11 00:02:51;;;;;;;7.50;2.60;;;;;;;8.50;35.64;100548.88;5055550;28;20383;-79
2022/03/11 00:05:17;;;;;;;8.47;3.10;;;;;;;8.48;35.64;100548.22;5056297;28;20456;-81
2022/03/11 00:07:42;;;;;;;9.38;3.03;;;;;;;8.51;35.71;100540.63;5054798;28;20032;-79
2022/03/11 00:10:08;;;;;;;7.60;3.63;;;;;;;8.52;35.36;100541.44;5056647;28;20056;-79
2022/03/11 00:12:36;;;;;;;6.47;2.58;;;;;;;8.42;35.38;100536.34;5056310;28;20108;-78
2022/03/11 00:15:02;;;;;;;6.65;2.45;;;;;;;8.42;35.94;100525.63;5056226;28;20148;-79
2022/03/11 00:17:27;;;;;;;8.68;3.63;;;;;;;8.51;35.58;100524.50;5055595;28;20033;-79
2022/03/11 00:19:53;;;;;;;15.97;3.27;;;;;;;8.45;35.77;100527.09;5054402;28;20440;-79
2022/03/11 00:22:18;;;;;;;7.37;2.77;;;;;;;8.47;35.42;100533.94;5054744;28;20431;-80
2022/03/11 00:24:43;;;;;;;7.77;2.80;;;;;;;8.41;35.52;100533.91;5055411;28;20032;-79
2022/03/11 00:27:09;;;;;;;9.73;2.93;;;;;;;8.34;35.39;100542.69;5055916;28;20456;-80
2022/03/11 00:29:34;;;;;;;6.67;2.67;;;;;;;8.37;35.96;100537.97;5054631;28;20055;-78
2022/03/11 00:32:00;;;;;;;6.60;2.87;;;;;;;8.32;35.64;100531.31;5056391;28;20032;-78
2022/03/11 00:34:25;;;;;;;6.43;2.50;;;;;;;8.33;35.52;100537.50;5054829;28;20454;-79
2022/03/11 00:36:50;;;;;;;8.33;2.33;;;;;;;8.31;35.85;100539.50;5054811;28;20801;-79
2022/03/11 00:39:15;;;;;;;6.83;2.47;;;;;;;8.33;35.72;100534.81;5055251;28;20056;-78
2022/03/11 00:41:41;;;;;;;7.47;2.63;;;;;;;8.34;35.68;100539.16;5056149;28;20036;-80
2022/03/11 00:44:07;;;;;;;6.53;2.67;;;;;;;8.32;35.46;100527.78;5055547;28;20353;-78
2022/03/11 00:46:32;;;;;;;6.78;2.75;;;;;;;8.42;35.48;100531.00;5055067;28;20040;-79
2022/03/11 00:48:58;;;;;;;6.87;2.20;;;;;;;8.44;35.39;100528.94;5057692;28;20318;-78
2022/03/11 00:51:23;;;;;;;6.78;2.38;;;;;;;8.44;35.43;100526.28;5058807;28;20090;-79
2022/03/11 00:53:49;;;;;;;6.27;2.40;;;;;;;8.40;35.71;100527.69;5058750;28;20051;-78
2022/03/11 00:56:14;;;;;;;6.37;2.53;;;;;;;8.45;35.49;100525.25;5058806;28;20452;-78
2022/03/11 00:58:39;;;;;;;7.93;3.03;;;;;;;8.51;35.53;100513.75;5058084;28;20514;-79
2022/03/11 01:01:05;;;;;;;6.77;2.77;;;;;;;8.55;35.22;100520.44;5058760;28;20060;-78
2022/03/11 01:03:30;;;;;;;8.67;2.53;;;;;;;8.55;35.24;100522.28;5058754;28;20037;-78
2022/03/11 01:05:55;;;;;;;5.80;2.50;;;;;;;8.59;35.54;100520.88;5058453;28;20021;-79
2022/03/11 01:08:21;;;;;;;10.60;2.70;;;;;;;8.58;35.42;100506.63;5058328;28;20492;-78
2022/03/11 01:10:46;;;;;;;6.43;2.40;;;;;;;8.54;35.38;100516.06;5058856;28;20720;-79
2022/03/11 01:13:12;;;;;;;6.35;2.47;;;;;;;8.62;35.34;100504.38;5058501;28;20127;-79
2022/03/11 01:15:37;;;;;;;6.70;2.70;;;;;;;8.50;35.53;100508.56;5060110;28;20029;-82
2022/03/11 01:18:02;;;;;;;7.67;2.23;;;;;;;8.58;35.52;100497.72;5060838;28;20362;-80
2022/03/11 01:20:28;;;;;;;8.27;3.13;;;;;;;8.53;35.72;100490.25;5059533;28;20040;-80
2022/03/11 01:22:53;;;;;;;8.98;2.83;;;;;;;8.59;35.59;100500.22;5058931;28;20025;-79
2022/03/11 01:25:19;;;;;;;9.03;3.17;;;;;;;8.55;35.54;100485.50;5058015;28;20061;-78
2022/03/11 01:27:44;;;;;;;7.33;2.57;;;;;;;8.51;35.81;100486.06;5058682;28;20024;-77
2022/03/11 01:30:13;;;;;;;7.13;2.47;;;;;;;8.48;35.99;100498.03;5058588;28;20506;-79
2022/03/11 01:32:39;;;;;;;7.63;2.90;;;;;;;8.48;36.03;100483.75;5058402;28;20032;-78
2022/03/11 01:35:05;;;;;;;7.38;2.85;;;;;;;8.47;35.78;100476.72;5057402;28;20025;-80
2022/03/11 01:37:30;;;;;;;6.97;2.88;;;;;;;8.44;36.04;100475.25;5057114;28;20089;-80
2022/03/11 01:39:55;;;;;;;8.83;2.63;;;;;;;8.43;36.21;100480.81;5056829;28;20029;-76
2022/03/11 01:42:21;;;;;;;7.70;2.83;;;;;;;8.35;36.45;100487.13;5058019;28;20467;-79
2022/03/11 01:44:46;;;;;;;7.47;3.00;;;;;;;8.33;36.73;100479.28;5057785;28;20475;-78
2022/03/11 01:47:11;;;;;;;7.93;2.60;;;;;;;8.26;36.65;100481.00;5057679;28;20036;-79
2022/03/11 01:49:37;;;;;;;8.17;3.07;;;;;;;8.22;37.08;100477.06;5057791;28;20113;-78
2022/03/11 01:52:03;;;;;;;9.17;3.30;;;;;;;8.19;37.26;100485.47;5058021;28;20032;-80
2022/03/11 01:54:28;;;;;;;9.93;2.85;;;;;;;8.14;37.55;100479.84;5057905;28;20263;-78
2022/03/11 01:56:53;;;;;;;8.10;2.83;;;;;;;8.14;37.39;100476.31;5058631;28;20592;-78
2022/03/11 01:59:20;;;;;;;7.73;2.37;;;;;;;8.11;37.51;100472.16;5056933;28;20302;-78
2022/03/11 02:04:20;;;;;;;7.15;2.53;;;;;;;8.10;37.96;100469.66;4703882;22;20068;-79
2022/03/11 02:06:46;;;;;;;6.60;2.67;;;;;;;8.05;38.11;100467.56;5223528;22;20053;-77
2022/03/11 02:09:12;;;;;;;6.47;2.83;;;;;;;8.07;38.03;100464.66;5034457;28;20387;-77
2022/03/11 02:11:37;;;;;;;8.68;2.45;;;;;;;8.06;37.92;100466.50;5035812;28;20103;-78
2022/03/11 02:14:03;;;;;;;8.07;2.87;;;;;;;8.01;38.48;100450.16;5035282;28;20034;-77
2022/03/11 02:16:30;;;;;;;6.10;2.30;;;;;;;7.96;38.10;100461.44;5036593;28;20030;-77
2022/03/11 02:18:57;;;;;;;6.93;2.45;;;;;;;8.02;38.14;100458.03;5037480;28;20041;-77
2022/03/11 02:21:22;;;;;;;;;;;;;;;7.89;39.01;100460.50;5035182;28;20041;-78
2022/03/11 02:23:59;;;;;;;8.55;2.95;;;;;;;7.94;38.90;100451.91;5035917;28;20259;-78
2022/03/11 02:26:26;;;;;;;6.35;2.45;;;;;;;7.86;39.34;100454.72;5036028;28;20026;-78
2022/03/11 02:28:53;;;;;;;10.75;3.28;;;;;;;7.81;39.43;100447.22;5035705;28;20045;-75
2022/03/11 02:31:21;;;;;;;12.18;3.28;;;;;;;7.66;39.90;100447.22;5035371;28;20424;-76
2022/03/11 02:33:46;;;;;;;7.47;2.83;;;;;;;7.76;39.88;100449.63;5034281;28;20120;-78
2022/03/11 02:36:11;;;;;;;8.32;2.97;;;;;;;7.71;39.41;100448.50;5035248;28;20067;-78
2022/03/11 02:38:37;;;;;;;8.40;3.03;;;;;;;7.73;40.16;100446.47;5035315;28;20453;-77
2022/03/11 02:41:03;;;;;;;9.65;3.38;;;;;;;7.76;39.79;100444.25;5035542;28;20037;-77
2022/03/11 02:43:28;;;;;;;6.80;2.83;;;;;;;7.69;39.81;100445.19;5035527;28;20026;-80
2022/03/11 02:45:54;;;;;;;6.43;2.70;;;;;;;7.71;39.85;100446.66;5035666;28;20471;-77
2022/03/11 02:48:19;;;;;;;8.45;2.90;;;;;;;7.71;39.80;100445.81;5036069;28;20507;-76
2022/03/11 02:50:45;;;;;;;7.78;2.78;;;;;;;7.65;39.71;100437.53;5036011;28;20038;-78
2022/03/11 02:53:10;;;;;;;10.07;3.25;;;;;;;7.54;40.70;100437.13;5035701;28;20079;-77
2022/03/11 02:55:36;;;;;;;10.57;3.13;;;;;;;7.62;40.04;100431.69;5035645;28;20036;-76
2022/03/11 02:58:01;;;;;;;6.88;2.88;;;;;;;7.57;40.08;100439.44;5035332;28;20116;-78
2022/03/11 03:00:27;;;;;;;9.32;2.95;;;;;;;7.59;40.34;100432.06;5034977;28;20105;-80
2022/03/11 03:02:52;;;;;;;8.50;2.90;;;;;;;7.56;40.25;100433.25;5034710;28;20057;-77
2022/03/11 03:05:17;;;;;;;7.37;2.57;;;;;;;7.53;40.86;100427.41;5034659;28;20025;-77
2022/03/11 03:07:43;;;;;;;6.57;2.50;;;;;;;7.53;40.30;100432.78;5034671;28;20472;-77
2022/03/11 03:10:12;;;;;;;6.47;2.57;;;;;;;7.50;40.46;100434.00;5034160;28;20268;-77
2022/03/11 03:12:38;;;;;;;9.77;3.30;;;;;;;7.42;40.33;100425.22;5034371;28;20021;-78
2022/03/11 03:15:05;;;;;;;7.00;2.85;;;;;;;7.40;40.72;100419.19;5035061;28;20033;-78
2022/03/11 03:17:31;;;;;;;8.88;3.22;;;;;;;7.29;41.13;100413.28;5034709;28;20078;-77
2022/03/11 03:19:56;;;;;;;8.33;3.77;;;;;;;7.27;41.07;100420.69;5034595;28;20112;-75
2022/03/11 03:22:21;;;;;;;8.80;3.00;;;;;;;7.29;40.61;100417.81;5034422;28;20029;-77
2022/03/11 03:24:47;;;;;;;21.90;3.00;;;;;;;7.26;41.01;100420.84;5035131;28;20060;-82
2022/03/11 03:27:13;;;;;;;8.25;3.20;;;;;;;7.30;40.54;100414.13;5035042;28;20029;-79
2022/03/11 03:29:38;;;;;;;7.97;2.88;;;;;;;7.21;41.46;100412.53;5033528;28;20114;-78
2022/03/11 03:32:04;;;;;;;7.53;2.73;;;;;;;7.20;41.07;100416.22;5034782;28;20033;-78
2022/03/11 03:34:31;;;;;;;11.27;2.97;;;;;;;7.16;41.18;100398.88;5034952;28;20105;-75
2022/03/11 03:37:01;;;;;;;8.90;3.08;;;;;;;7.13;41.17;100410.78;5034966;28;20578;-78
2022/03/11 03:39:27;;;;;;;7.60;3.22;;;;;;;7.13;40.91;100410.78;5034640;28;20029;-78
2022/03/11 03:41:54;;;;;;;9.25;3.28;;;;;;;7.12;41.23;100413.66;5035062;28;20037;-77
2022/03/11 03:44:20;;;;;;;11.23;4.03;;;;;;;7.03;41.25;100404.84;5034334;28;20065;-76
2022/03/11 03:46:45;;;;;;;8.35;3.03;;;;;;;7.00;41.42;100405.19;5033477;28;20061;-76
2022/03/11 03:49:10;;;;;;;10.93;3.27;;;;;;;6.97;41.53;100406.41;5033168;28;20033;-79
2022/03/11 03:51:38;;;;;;;7.57;2.67;;;;;;;6.98;41.27;100404.56;5034085;28;20059;-76
2022/03/11 03:54:04;;;;;;;9.98;2.88;;;;;;;7.00;41.52;100407.88;5034158;28;20040;-77
2022/03/11 03:56:29;;;;;;;;;;;;;;;6.86;41.40;100404.16;5034608;28;20419;-76
2022/03/11 03:58:55;;;;;;;8.23;2.77;;;;;;;6.89;41.96;100405.66;5034311;28;19967;-79
2022/03/11 04:01:20;;;;;;;6.83;2.43;;;;;;;6.86;41.25;100401.47;5034343;28;20260;-78
2022/03/11 04:03:45;;;;;;;8.10;2.80;;;;;;;6.80;41.48;100398.72;5033057;28;20025;-77
2022/03/11 04:06:11;;;;;;;8.23;3.53;;;;;;;6.84;41.60;100406.19;5034180;28;20342;-77
2022/03/11 04:08:36;;;;;;;10.17;3.83;;;;;;;6.76;42.14;100392.06;5034780;28;20079;-77
2022/03/11 04:11:01;;;;;;;9.60;2.87;;;;;;;6.77;41.96;100399.91;5034431;28;20026;-78
2022/03/11 04:13:27;;;;;;;8.47;4.00;;;;;;;6.75;41.78;100401.09;5033919;28;20099;-79
2022/03/11 04:15:52;;;;;;;9.33;3.50;;;;;;;6.70;41.79;100395.44;5035599;28;20033;-78
2022/03/11 04:18:18;;;;;;;10.18;3.78;;;;;;;6.66;42.04;100386.94;5034463;28;20025;-76
2022/03/11 04:20:43;;;;;;;9.33;3.23;;;;;;;6.67;41.74;100385.91;5037212;28;20030;-81
2022/03/11 04:23:08;;;;;;;8.57;3.17;;;;;;;6.64;41.71;100394.31;5040420;28;20587;-78
2022/03/11 04:25:34;;;;;;;14.90;3.90;;;;;;;6.70;41.82;100385.56;5043221;28;20060;-79
2022/03/11 04:27:59;;;;;;;10.45;4.07;;;;;;;6.66;41.65;100391.44;5040016;28;20018;-79
2022/03/11 04:30:25;;;;;;;7.93;3.17;;;;;;;6.59;42.33;100392.19;5039939;28;20060;-79
2022/03/11 04:32:51;;;;;;;10.38;3.40;;;;;;;6.57;42.27;100383.50;5040545;28;20030;-78
2022/03/11 04:35:16;;;;;;;8.70;3.50;;;;;;;6.60;42.48;100387.66;5039807;28;20045;-80
2022/03/11 04:37:41;;;;;;;12.67;3.60;;;;;;;6.58;41.98;100395.03;5040384;28;20045;-77
2022/03/11 04:40:07;;;;;;;8.07;3.67;;;;;;;6.52;42.72;100388.56;5040596;28;20434;-82
2022/03/11 04:42:34;;;;;;;10.40;3.90;;;;;;;6.54;42.73;100391.88;5040849;28;20037;-76
2022/03/11 04:45:00;;;;;;;11.73;4.18;;;;;;;6.50;42.32;100379.88;5042327;28;20041;-78
2022/03/11 04:47:25;;;;;;;9.97;3.50;;;;;;;6.47;42.66;100382.91;5043771;28;20033;-80
2022/03/11 04:49:52;;;;;;;9.75;4.28;;;;;;;6.39;42.97;100379.47;5042561;28;20032;-78
2022/03/11 04:52:17;;;;;;;9.18;4.05;;;;;;;6.41;42.95;100386.31;5040221;28;20060;-80
2022/03/11 04:54:43;;;;;;;7.60;3.17;;;;;;;6.36;42.53;100383.31;5044538;28;20041;-78
2022/03/11 04:57:08;;;;;;;10.23;3.63;;;;;;;6.35;42.87;100378.97;5041029;28;20537;-78
2022/03/11 04:59:33;;;;;;;10.33;3.80;;;;;;;6.33;42.76;100380.16;5043754;28;20734;-79
2022/03/11 05:01:59;;;;;;;14.13;4.40;;;;;;;6.28;42.94;100375.34;5040320;28;20033;-78
2022/03/11 05:04:24;;;;;;;9.83;3.60;;;;;;;6.25;43.42;100373.06;5039505;28;20052;-78
2022/03/11 05:06:49;;;;;;;11.57;3.97;;;;;;;6.26;43.99;100385.41;5040801;28;20046;-79
2022/03/11 05:09:15;;;;;;;8.40;3.53;;;;;;;6.16;43.70;100374.94;5043677;28;20025;-78
2022/03/11 05:11:40;;;;;;;10.65;3.45;;;;;;;6.14;44.28;100376.13;5045253;28;20032;-79
2022/03/11 05:14:06;;;;;;;9.20;4.17;;;;;;;6.09;44.26;100386.53;5044325;28;20475;-79
2022/03/11 05:16:31;;;;;;;9.43;4.03;;;;;;;6.08;44.05;100384.88;5044442;28;20032;-80
2022/03/11 05:18:56;;;;;;;12.27;4.07;;;;;;;6.10;44.68;100374.81;5042661;28;20366;-80
2022/03/11 05:21:22;;;;;;;10.97;3.80;;;;;;;6.02;44.86;100404.28;5043407;28;20033;-80
2022/03/11 05:23:48;;;;;;;11.57;4.43;;;;;;;5.95;44.60;100389.94;5041915;28;20042;-81
2022/03/11 05:26:25;;;;;;;10.23;3.55;;;;;;;5.89;44.74;100378.13;5041896;28;20029;-79
2022/03/11 05:28:58;;;;;;;10.68;4.05;;;;;;;5.88;44.61;100371.06;5038592;28;20049;-79
2022/03/11 05:31:25;;;;;;;8.32;3.40;;;;;;;5.84;45.05;100375.94;5038968;28;20032;-80
2022/03/11 05:33:51;;;;;;;11.07;4.28;;;;;;;5.82;45.05;100374.44;5039033;28;20061;-79
2022/03/11 05:36:17;;;;;;;9.50;3.80;;;;;;;5.81;44.91;100386.97;5037908;28;20048;-81
2022/03/11 05:38:42;;;;;;;;;;;;;;;5.77;45.40;100374.97;5039175;28;20037;-79
2022/03/11 05:41:08;;;;;;;9.73;3.83;;;;;;;5.74;45.02;100380.66;5039608;28;19962;-80
2022/03/11 05:43:33;;;;;;;13.20;4.50;;;;;;;5.75;45.62;100362.78;5039260;28;20025;-82
2022/03/11 05:45:58;;;;;;;13.00;4.50;;;;;;;5.69;45.55;100366.16;5039048;28;20271;-81
2022/03/11 05:48:24;;;;;;;12.23;4.47;;;;;;;5.67;45.75;100365.50;5040070;28;20580;-78
2022/03/11 05:50:49;;;;;;;9.03;3.57;;;;;;;5.62;45.82;100363.34;5039224;28;20029;-77
2022/03/11 05:53:15;;;;;;;13.20;4.27;;;;;;;5.63;45.63;100366.84;5037012;28;20030;-78
2022/03/11 05:55:41;;;;;;;11.88;4.68;;;;;;;5.60;45.95;100357.34;5037017;28;20035;-79
2022/03/11 05:58:06;;;;;;;10.05;3.95;;;;;;;5.55;45.81;100354.38;5036807;28;20478;-80
2022/03/11 06:00:31;;;;;;;9.40;3.50;;;;;;;5.54;45.87;100358.06;5037558;28;20041;-78
2022/03/11 06:02:57;;;;;;;11.30;4.07;;;;;;;5.51;45.74;100358.41;5036993;28;20091;-78
2022/03/11 06:05:22;;;;;;;12.90;4.33;;;;;;;5.49;46.32;100363.09;5035429;28;20503;-79
2022/03/11 06:07:47;;;;;;;9.60;4.13;;;;;;;5.49;45.54;100373.78;5037028;28;20026;-79
2022/03/11 06:10:12;;;;;;;11.43;4.30;;;;;;;5.46;46.21;100366.94;5037381;28;20033;-78
2022/03/11 06:12:38;;;;;;;11.03;4.83;;;;;;;5.46;45.85;100363.41;5036294;28;20017;-79
2022/03/11 06:15:15;;;;;;;13.13;4.83;;;;;;;5.49;46.03;100360.41;5036483;28;20089;-78
2022/03/11 06:17:41;;;;;;;9.60;4.88;;;;;;;5.53;46.14;100353.72;5036725;28;20471;-80
2022/03/11 06:20:08;;;;;;;13.90;4.75;;;;;;;5.45;45.69;100361.75;5036342;28;20036;-78
2022/03/11 06:22:36;;;;;;;14.27;4.72;;;;;;;5.41;46.14;100357.75;5036542;28;20363;-78
2022/03/11 06:25:22;;;;;;;14.85;4.95;;;;;;;5.43;46.29;100353.91;5037106;28;20041;-78
2022/03/11 06:27:49;;;;;;;13.48;5.05;;;;;;;5.40;46.46;100356.91;5035890;28;20079;-77
2022/03/11 06:30:17;;;;;;;14.20;5.50;;;;;;;5.40;45.87;100354.25;5037676;28;20029;-80
2022/03/11 06:32:43;;;;;;;14.55;4.65;;;;;;;5.41;46.07;100347.91;5037177;28;20022;-79
2022/03/11 06:35:11;;;;;;;13.35;5.40;;;;;;;5.45;45.69;100349.22;5037089;28;20030;-78
2022/03/11 06:37:36;;;;;;;12.02;5.00;;;;;;;5.41;46.63;100342.56;5037904;28;20040;-78
2022/03/11 06:40:02;;;;;;;13.48;4.68;;;;;;;5.43;46.06;100343.22;5038788;28;20034;-79
2022/03/11 06:42:38;;;;;;;12.35;4.72;;;;;;;5.42;46.05;100338.03;5037833;28;20172;-80
2022/03/11 06:45:05;;;;;;;12.55;5.35;;;;;;;5.42;46.18;100338.88;5036989;28;20049;-79
2022/03/11 06:47:31;;;;;;;14.73;5.38;;;;;;;5.44;45.86;100341.38;5037440;28;20410;-78
2022/03/11 06:49:57;;;;;;;11.98;5.10;;;;;;;5.51;45.48;100331.66;5035331;28;20029;-79
2022/03/11 06:52:22;;;;;;;10.95;4.82;;;;;;;5.54;45.32;100334.00;5034974;28;20040;-78
2022/03/11 06:54:49;;;;;;;14.70;5.18;;;;;;;5.50;45.66;100335.34;5037685;28;20038;-80
2022/03/11 06:57:17;;;;;;;10.02;4.25;;;;;;;5.59;45.53;100334.28;5036867;28;20468;-83
2022/03/11 06:59:44;;;;;;;12.98;5.20;;;;;;;5.52;45.36;100338.69;5036811;28;20038;-78
2022/03/11 07:02:09;;;;;;;12.25;4.90;;;;;;;5.47;45.82;100349.06;5037043;28;20113;-78
2022/03/11 07:04:35;;;;;;;14.63;5.50;;;;;;;5.54;45.39;100337.50;5036902;28;20375;-77
2022/03/11 07:07:00;;;;;;;13.23;5.18;;;;;;;5.56;45.38;100337.31;5036962;28;20482;-79
2022/03/11 07:09:26;;;;;;;13.53;4.90;;;;;;;5.64;45.58;100339.94;5036723;28;20025;-80
2022/03/11 07:11:57;;;;;;;14.32;5.38;;;;;;;5.75;45.36;100333.38;5037708;28;20029;-80
2022/03/11 07:14:30;;;;;;;15.43;5.60;;;;;;;5.73;44.85;100330.88;5038104;28;20103;-77
2022/03/11 07:16:56;;;;;;;13.77;5.50;;;;;;;5.76;44.85;100329.69;5037576;28;20029;-80
2022/03/11 07:19:24;;;;;;;12.93;5.53;;;;;;;5.76;45.08;100338.53;5041431;28;20025;-80
2022/03/11 07:21:50;;;;;;;12.10;4.68;;;;;;;5.84;44.86;100332.31;5041936;28;20049;-80
2022/03/11 07:24:16;;;;;;;15.38;4.82;;;;;;;5.86;45.06;100330.31;5042519;28;20025;-80
2022/03/11 07:26:41;;;;;;;15.25;5.95;;;;;;;6.00;44.83;100332.25;5040154;28;20472;-79
2022/03/11 07:29:07;;;;;;;17.92;5.63;;;;;;;6.03;43.99;100347.13;5039611;28;20037;-80
2022/03/11 07:31:32;;;;;;;11.02;4.20;;;;;;;6.07;44.09;100332.38;5044020;28;20087;-79
2022/03/11 07:33:59;;;;;;;15.00;4.90;;;;;;;6.05;44.00;100335.22;5045853;28;20045;-79
2022/03/11 07:36:25;;;;;;;13.05;5.07;;;;;;;6.08;44.21;100342.06;5043142;28;20052;-79
2022/03/11 07:38:50;;;;;;;12.32;5.53;;;;;;;6.12;44.29;100346.03;5041695;28;20042;-78
2022/03/11 07:41:16;;;;;;;10.00;3.93;;;;;;;6.28;43.95;100345.91;5040816;28;20407;-79
2022/03/11 07:43:44;;;;;;;12.15;4.88;;;;;;;6.35;43.28;100341.53;5040858;28;20033;-78
2022/03/11 07:46:16;;;;;;;11.65;4.30;;;;;;;6.34;43.96;100347.88;5041495;28;20044;-79
2022/03/11 07:48:42;;;;;;;13.30;5.55;;;;;;;6.37;43.55;100357.41;5043766;28;20060;-79
2022/03/11 07:51:08;;;;;;;12.98;4.18;;;;;;;6.45;43.60;100352.00;5042709;28;20037;-78
2022/03/11 07:53:34;;;;;;;14.63;4.95;;;;;;;6.50;43.47;100355.78;5037716;28;20075;-76
2022/03/11 07:56:00;;;;;;;11.60;5.03;;;;;;;6.42;43.17;100347.84;5042141;28;20026;-77
2022/03/11 07:58:25;;;;;;;13.63;4.95;;;;;;;6.53;43.45;100350.06;5042813;28;20052;-78
2022/03/11 08:00:52;;;;;;;13.57;6.05;;;;;;;6.60;42.74;100355.53;5042106;28;20037;-78
2022/03/11 08:03:18;;;;;;;13.27;4.68;;;;;;;6.73;42.84;100350.41;5040641;28;20033;-80
2022/03/11 08:05:44;;;;;;;;;;;;;;;6.77;42.55;100343.66;5040437;28;20391;-80
2022/03/11 08:08:10;;;;;;;13.30;5.00;;;;;;;6.83;42.32;100337.56;5042415;28;19971;-81
2022/03/11 08:10:37;;;;;;;13.98;5.75;;;;;;;6.89;42.63;100336.00;5039713;28;20514;-80
2022/03/11 08:13:08;;;;;;;12.68;5.30;;;;;;;6.92;41.69;100341.00;5035888;28;20068;-79
2022/03/11 08:15:37;;;;;;;12.35;5.30;;;;;;;6.97;42.02;100333.25;5038807;28;20033;-77
2022/03/11 08:18:03;;;;;;;12.73;5.03;;;;;;;7.07;41.66;100327.63;5035290;28;20033;-77
2022/03/11 08:20:29;;;;;;;12.68;5.10;;;;;;;7.25;41.51;100346.84;5036142;28;20053;-78
2022/03/11 08:22:55;;;;;;;14.82;4.78;;;;;;;7.23;41.44;100330.94;5035993;28;20030;-78
2022/03/11 08:25:26;;;;;;;13.75;4.88;;;;;;;7.31;41.05;100348.78;5038833;28;20448;-78
2022/03/11 08:27:53;;;;;;;12.50;4.88;;;;;;;7.36;41.37;100332.13;5036746;28;20040;-78
2022/03/11 08:30:18;;;;;;;10.85;4.57;;;;;;;7.57;40.81;100337.56;5037382;28;20034;-80
2022/03/11 08:32:44;;;;;;;12.65;4.85;;;;;;;7.58;41.02;100328.50;5034851;28;20432;-79
2022/03/11 08:35:09;;;;;;;11.50;4.97;;;;;;;7.64;40.09;100322.41;5034128;28;20531;-78
2022/03/11 08:37:37;;;;;;;13.25;4.97;;;;;;;7.56;40.20;100330.53;5037050;28;20331;-82
2022/03/11 08:40:04;;;;;;;12.52;4.90;;;;;;;7.59;40.61;100325.63;5036006;28;20060;-78
2022/03/11 08:42:29;;;;;;;15.02;4.85;;;;;;;7.72;40.29;100334.84;5037198;28;20124;-78
2022/03/11 08:44:55;;;;;;;12.93;5.33;;;;;;;7.58;40.41;100318.59;5036008;28;20061;-79
2022/03/11 08:47:20;;;;;;;9.23;4.13;;;;;;;7.64;40.35;100323.22;5034856;28;20433;-81
2022/03/11 08:49:45;;;;;;;16.57;5.27;;;;;;;7.90;40.44;100309.25;5034841;28;20268;-80
2022/03/11 08:52:11;;;;;;;13.48;4.47;;;;;;;7.98;39.79;100306.47;5035369;28;20022;-81
2022/03/11 08:54:36;;;;;;;10.38;4.18;;;;;;;8.05;39.74;100321.81;5034940;28;20037;-77
2022/03/11 08:57:03;;;;;;;16.43;5.30;;;;;;;8.04;39.56;100317.47;5035429;28;20391;-77
2022/03/11 08:59:28;;;;;;;9.32;4.43;;;;;;;8.21;39.30;100318.88;5035946;28;20036;-78
2022/03/11 09:01:54;;;;;;;13.45;5.35;;;;;;;8.19;39.22;100320.91;5034262;28;20078;-79
2022/03/11 09:04:20;;;;;;;11.70;4.90;;;;;;;8.15;39.78;100317.78;5035945;28;20039;-78
2022/03/11 09:06:46;;;;;;;11.90;5.55;;;;;;;8.21;39.95;100319.72;5035767;28;20538;-77
2022/03/11 09:09:11;;;;;;;9.17;4.70;;;;;;;8.07;38.95;100320.56;5037394;28;20037;-79
2022/03/11 09:11:37;;;;;;;9.90;4.53;;;;;;;8.09;39.43;100305.13;5038379;28;20056;-79
2022/03/11 09:14:02;;;;;;;13.25;5.00;;;;;;;8.31;39.15;100301.41;5038463;28;20048;-79
2022/03/11 09:16:28;;;;;;;11.93;4.22;;;;;;;8.39;39.07;100308.53;5040088;28;20034;-83
2022/03/11 09:18:54;;;;;;;12.45;5.80;;;;;;;8.34;39.33;100305.59;5040089;28;20112;-80
2022/03/11 09:21:21;;;;;;;11.25;5.10;;;;;;;8.57;38.91;100291.97;5039340;28;20438;-80
2022/03/11 09:23:47;;;;;;;;;;;;;;;8.75;38.35;100303.03;5040627;28;20025;-79
2022/03/11 09:26:13;;;;;;;15.63;4.37;;;;;;;8.87;38.04;100292.56;5039434;28;19909;-81
2022/03/11 09:28:39;;;;;;;12.20;5.32;;;;;;;8.81;38.27;100283.44;5039306;28;20120;-80
2022/03/11 09:31:08;;;;;;;13.90;5.40;;;;;;;8.95;37.93;100290.56;5041028;28;20033;-79
2022/03/11 09:33:36;;;;;;;11.95;4.55;;;;;;;8.95;37.84;100295.94;5042708;28;20483;-79
2022/03/11 09:36:02;;;;;;;12.90;5.35;;;;;;;8.79;37.88;100290.84;5040388;28;20029;-79
2022/03/11 09:38:27;;;;;;;12.80;5.10;;;;;;;8.90;38.08;100293.00;5040933;28;20037;-79
2022/03/11 09:40:55;;;;;;;12.40;4.60;;;;;;;8.97;38.03;100288.50;5042623;28;20033;-79
2022/03/11 09:43:30;;;;;;;11.43;4.57;;;;;;;9.10;37.86;100274.31;5040179;28;20451;-79
2022/03/11 09:45:59;;;;;;;14.52;5.15;;;;;;;9.38;38.51;100279.63;5041110;28;20032;-79
2022/03/11 09:48:25;;;;;;;13.32;5.22;;;;;;;9.54;37.26;100278.44;5041583;28;20030;-79
2022/03/11 09:50:51;;;;;;;13.43;5.75;;;;;;;9.60;36.60;100283.00;5039834;28;20140;-80
2022/03/11 09:53:17;;;;;;;12.82;4.93;;;;;;;9.74;36.49;100276.63;5040217;28;20467;-80
2022/03/11 09:55:43;;;;;;;;;;;;;;;9.68;36.61;100272.03;5039030;28;20547;-80
2022/03/11 09:58:09;;;;;;;12.02;4.90;;;;;;;9.71;37.08;100267.09;5039024;28;19959;-79
2022/03/11 10:00:35;;;;;;;13.77;5.63;;;;;;;9.61;36.85;100261.28;5039354;28;20025;-80
2022/03/11 10:03:01;;;;;;;12.73;4.95;;;;;;;9.71;36.09;100269.78;5040879;28;20088;-80
2022/03/11 10:05:45;;;;;;;13.80;4.60;;;;;;;9.62;37.07;100264.81;5038315;28;20033;-79
2022/03/11 10:08:10;;;;;;;11.07;4.60;;;;;;;9.82;36.14;100265.69;5038664;28;20048;-79
2022/03/11 10:10:36;;;;;;;14.70;5.20;;;;;;;9.95;35.89;100264.88;5039738;28;20034;-79
2022/03/11 10:13:01;;;;;;;11.25;5.03;;;;;;;10.07;35.61;100260.53;5040632;28;20025;-80
2022/03/11 10:15:29;;;;;;;12.02;4.40;;;;;;;10.23;36.02;100259.34;5040738;28;20041;-79
2022/03/11 10:17:55;;;;;;;10.32;4.95;;;;;;;10.33;35.41;100259.78;5038381;28;20041;-80
2022/03/11 10:20:21;;;;;;;13.48;5.22;;;;;;;10.19;35.97;100252.72;5038268;28;20104;-80
2022/03/11 10:22:47;;;;;;;14.75;5.15;;;;;;;10.17;35.25;100269.06;5040512;28;20262;-80
2022/03/11 10:25:13;;;;;;;14.98;5.90;;;;;;;10.14;35.89;100252.47;5040200;28;20030;-80
2022/03/11 10:27:54;;;;;;;12.70;5.07;;;;;;;10.20;35.38;100251.69;5042021;28;20036;-81
2022/03/11 10:30:20;;;;;;;14.13;5.20;;;;;;;10.21;35.50;100254.16;5040704;28;20025;-80
2022/03/11 10:32:51;;;;;;;12.40;5.55;;;;;;;10.32;35.57;100252.72;5040543;28;20022;-79
2022/03/11 10:35:18;;;;;;;13.43;5.68;;;;;;;10.48;35.77;100262.25;5039432;28;20101;-80
2022/03/11 10:38:07;;;;;;;12.20;4.72;;;;;;;9.99;36.00;100263.44;5041046;28;20033;-78
2022/03/11 10:40:34;;;;;;;12.63;4.90;;;;;;;10.22;36.53;100252.28;5041200;28;20466;-79
2022/03/11 10:43:09;;;;;;;10.85;5.18;;;;;;;10.46;35.63;100269.72;5040689;28;20033;-79
2022/03/11 10:45:49;;;;;;;13.10;5.70;;;;;;;10.48;35.28;100273.03;5039523;28;20112;-78
2022/03/11 10:48:16;;;;;;;10.75;4.28;;;;;;;10.58;35.01;100252.69;5039298;28;20029;-80
2022/03/11 10:50:43;;;;;;;12.80;4.90;;;;;;;10.55;35.22;100247.75;5039799;28;20147;-79
2022/03/11 10:53:10;;;;;;;12.18;5.07;;;;;;;10.75;35.13;100256.59;5036300;28;20036;-78
2022/03/11 10:55:39;;;;;;;10.70;4.90;;;;;;;10.37;35.61;100242.16;5035255;28;20025;-78
2022/03/11 10:58:06;;;;;;;13.68;4.82;;;;;;;10.69;35.25;100241.31;5036896;28;20025;-79
2022/03/11 11:00:36;;;;;;;10.73;4.88;;;;;;;10.70;34.77;100248.34;5037784;28;20467;-83
2022/03/11 11:03:04;;;;;;;12.70;5.32;;;;;;;10.73;35.54;100239.03;5036882;28;20029;-78
2022/03/11 11:05:31;;;;;;;10.85;4.60;;;;;;;10.92;34.79;100237.31;5037639;28;20052;-79
2022/03/11 11:07:58;;;;;;;11.02;5.10;;;;;;;10.88;35.07;100228.81;5038604;28;20022;-79
2022/03/11 11:10:25;;;;;;;12.48;4.90;;;;;;;11.07;34.50;100236.03;5039402;28;20022;-79
2022/03/11 11:12:51;;;;;;;12.38;4.95;;;;;;;11.17;34.32;100232.03;5039720;28;20026;-80
2022/03/11 11:15:17;;;;;;;;;;;;;;;11.03;34.62;100228.56;5039161;28;20166;-79
2022/03/11 11:17:49;;;;;;;16.05;5.93;;;;;;;10.88;34.16;100228.81;5035972;28;19917;-80
2022/03/11 11:20:33;;;;;;;9.82;4.93;;;;;;;10.86;34.33;100236.28;5036866;28;20029;-80
2022/03/11 11:23:04;;;;;;;11.77;4.78;;;;;;;10.99;34.36;100233.53;5036907;28;20034;-78
2022/03/11 11:25:33;;;;;;;11.65;4.47;;;;;;;11.13;34.25;100227.06;5034212;28;20032;-80
2022/03/11 11:28:09;;;;;;;13.90;5.63;;;;;;;10.96;34.11;100225.03;5036018;28;20025;-78